Welcome to Northern Hawkes Bay. New Zealand.
PWS Header
      nz Flag



Hit Counter


W3C Valid W3C Valid logo


    Wairoa

Select any of the Stations below to visit their websites.










Historic Data from Weather Underground
Select the location of interest below. Wairoa is the default. Please have patience, this Data is slow to load in.
Northern Hawkes Bay Historical Data
Daily Summary for December 3, 2017 Units:  English    Metric   Both
« Previous Day
Next Day »
Daily Weekly Monthly Yearly Custom
  High: Low: Average:
Temperature: 83.3 °F 59 °F 70 °F
Dew Point: 63.9 °F 52.9 °F 58.3 °F
Humidity: 92% 38% 68%
Wind Speed: 7.6mph 0mph 2.1mph
Wind Gust: 14.5mph - -
Wind- - SSW
Pressure: 30.2 in 30 in -
Precipitation: 0 in    
Historical Graphs
 
 
Tabular Data for December 3, 2017
Time Temperature Dew Point Pressure Wind Wind Speed Wind Gust Humidity Rainfall Rate (Hourly) solar
00:08 65.8 °F 58.5 °F 30.1 in NNW 6 mph 12.1 mph 77% 0 in 0 W/m2
00:13 65.7 °F 58.3 °F 30.1 in NNW 3.8 mph 11.4 mph 77% 0 in 0 W/m2
00:18 65.7 °F 58.3 °F 30.2 in NNW 4.5 mph 11.4 mph 77% 0 in 0 W/m2
00:23 65.7 °F 58.3 °F 30.1 in NNW 6 mph 9.8 mph 77% 0 in 0 W/m2
00:28 65.7 °F 58.3 °F 30.2 in NNW 5.4 mph 9.8 mph 77% 0 in 0 W/m2
00:38 65.3 °F 57.9 °F 30.1 in NW 3.8 mph 9.8 mph 77% 0 in 0 W/m2
00:43 65.3 °F 58.3 °F 30.1 in NNW 4.5 mph 9.2 mph 78% 0 in 0 W/m2
00:48 65.1 °F 58.1 °F 30.1 in NNW 3.8 mph 9.2 mph 78% 0 in 0 W/m2
00:53 65.1 °F 58.1 °F 30.1 in NNW 2.2 mph 9.2 mph 78% 0 in 0 W/m2
01:03 64.8 °F 58.1 °F 30.1 in NNW 0.7 mph 6.9 mph 79% 0 in 0 W/m2
01:08 64.6 °F 57.9 °F 30.1 in NNW 2.2 mph 7.6 mph 79% 0 in 0 W/m2
01:13 64.6 °F 58.3 °F 30.1 in NNW 2.2 mph 7.6 mph 80% 0 in 0 W/m2
01:18 64.4 °F 58.1 °F 30.1 in NW 3.1 mph 7.6 mph 80% 0 in 0 W/m2
01:23 64.2 °F 58.3 °F 30.1 in NW 1.6 mph 6 mph 81% 0 in 0 W/m2
01:33 63.9 °F 57.9 °F 30.1 in NNW 2.2 mph 7.6 mph 81% 0 in 0 W/m2
01:38 63.7 °F 57.7 °F 30.1 in NNW 1.6 mph 6 mph 81% 0 in 0 W/m2
01:43 63.3 °F 57.7 °F 30.1 in North 1.6 mph 5.4 mph 82% 0 in 0 W/m2
01:48 63.1 °F 57.6 °F 30.1 in North 0.7 mph 5.4 mph 82% 0 in 0 W/m2
01:53 62.8 °F 57.2 °F 30.1 in North 3.8 mph 6 mph 82% 0 in 0 W/m2
01:58 62.6 °F 57 °F 30.1 in North 2.2 mph 6 mph 82% 0 in 0 W/m2
02:03 62.6 °F 57 °F 30.1 in North 1.6 mph 6 mph 82% 0 in 0 W/m2
02:08 62.2 °F 57 °F 30.1 in Calm   5.4 mph 83% 0 in 0 W/m2
02:13 62.2 °F 57 °F 30.1 in North 2.2 mph 6.9 mph 83% 0 in 0 W/m2
02:18 62.2 °F 57 °F 30.1 in North 1.6 mph 6.9 mph 83% 0 in 0 W/m2
02:23 62.2 °F 57 °F 30.1 in North 0.7 mph 5.4 mph 83% 0 in 0 W/m2
02:28 62.1 °F 56.8 °F 30.1 in North 2.2 mph 5.4 mph 83% 0 in 0 W/m2
02:33 62.1 °F 56.8 °F 30.1 in North 3.1 mph 6.9 mph 83% 0 in 0 W/m2
02:38 62.1 °F 56.5 °F 30.1 in North 3.1 mph 7.6 mph 82% 0 in 0 W/m2
02:53 62.1 °F 56.5 °F 30.1 in North 3.1 mph 6.9 mph 82% 0 in 0 W/m2
02:58 62.1 °F 56.5 °F 30.1 in North 2.2 mph 6 mph 82% 0 in 0 W/m2
03:03 61.9 °F 56.3 °F 30.1 in NNW 3.8 mph 6.9 mph 82% 0 in 0 W/m2
03:08 61.7 °F 56.1 °F 30.1 in NNW 2.2 mph 6.9 mph 82% 0 in 0 W/m2
03:19 61.3 °F 56.1 °F 30.1 in North 1.6 mph 8.3 mph 83% 0 in 0 W/m2
03:24 61.3 °F 56.1 °F 30.1 in North 2.2 mph 8.3 mph 83% 0 in 0 W/m2
03:29 61.3 °F 56.1 °F 30.1 in North 3.8 mph 9.2 mph 83% 0 in 0 W/m2
03:44 61.3 °F 55.8 °F 30.1 in NNW 4.5 mph 9.2 mph 82% 0 in 0 W/m2
03:49 61.2 °F 55.9 °F 30.1 in North 3.1 mph 6.9 mph 83% 0 in 0 W/m2
03:59 61 °F 55.8 °F 30.1 in North 3.1 mph 6.9 mph 83% 0 in 0 W/m2
04:05 60.8 °F 55.6 °F 30.1 in North 3.1 mph 6.9 mph 83% 0 in 0 W/m2
04:10 60.8 °F 55.6 °F 30.1 in North 2.2 mph 7.6 mph 83% 0 in 0 W/m2
04:15 60.6 °F 55.8 °F 30.1 in North 0.7 mph 7.6 mph 84% 0 in 0 W/m2
04:20 60.6 °F 55.8 °F 30.1 in North 0.7 mph 6.9 mph 84% 0 in 0 W/m2
04:25 60.4 °F 55.6 °F 30.1 in North 2.2 mph 5.4 mph 84% 0 in 0 W/m2
04:35 60.4 °F 55.6 °F 30.1 in North 1.6 mph 6.9 mph 84% 0 in 0 W/m2
04:40 60.3 °F 55.4 °F 30.1 in North 2.2 mph 6.9 mph 84% 0 in 0 W/m2
04:45 60.1 °F 55.6 °F 30.1 in North 1.6 mph 6.9 mph 85% 0 in 0 W/m2
04:50 60.1 °F 55.6 °F 30.1 in North 2.2 mph 6.9 mph 85% 0 in 0 W/m2
04:55 60.1 °F 55.6 °F 30.1 in North 3.8 mph 6.9 mph 85% 0 in 0 W/m2
05:00 60.1 °F 55.6 °F 30.1 in NNW 2.2 mph 6.9 mph 85% 0 in 0 W/m2
05:05 60.1 °F 55.6 °F 30.1 in NNW 3.8 mph 6 mph 85% 0 in 0 W/m2
05:10 59.7 °F 55.2 °F 30.1 in NNW 4.5 mph 9.2 mph 85% 0 in 0 W/m2
05:15 59.5 °F 55.4 °F 30.1 in North 1.6 mph 9.2 mph 86% 0 in 0 W/m2
05:20 59.4 °F 55.2 °F 30.1 in North 1.6 mph 7.6 mph 86% 0 in 0 W/m2
05:25 59.4 °F 55.2 °F 30.1 in North 1.6 mph 6.9 mph 86% 0 in 0 W/m2
05:30 59.2 °F 55 °F 30.1 in NNW 3.1 mph 7.6 mph 86% 0 in 0 W/m2
05:35 59.2 °F 55 °F 30.1 in NNW 3.8 mph 7.6 mph 86% 0 in 0 W/m2
05:45 59.2 °F 55 °F 30.1 in NNW 3.1 mph 6 mph 86% 0 in 4 W/m2
05:50 59.2 °F 55 °F 30.1 in NNW 1.6 mph 6 mph 86% 0 in 6 W/m2
05:55 59 °F 54.9 °F 30.1 in NNW 3.8 mph 6.9 mph 86% 0 in 11 W/m2
06:00 59 °F 55 °F 30.1 in North 3.1 mph 6.9 mph 87% 0 in 16 W/m2
06:05 59 °F 55 °F 30.1 in North 1.6 mph 6.9 mph 87% 0 in 21 W/m2
06:15 59.2 °F 55.2 °F 30.1 in North 4.5 mph 6.9 mph 87% 0 in 29 W/m2
06:20 59.5 °F 55.4 °F 30.1 in North 3.8 mph 6.9 mph 86% 0 in 49 W/m2
06:25 60.4 °F 55.9 °F 30.1 in North 3.8 mph 7.6 mph 85% 0 in 58 W/m2
06:30 61.3 °F 56.1 °F 30.1 in NNW 2.2 mph 7.6 mph 83% 0 in 67 W/m2
06:35 62.1 °F 56.5 °F 30.1 in North 3.8 mph 7.6 mph 82% 0 in 75 W/m2
06:40 62.4 °F 56.5 °F 30.1 in North 2.2 mph 6.9 mph 81% 0 in 83 W/m2
06:58 63.5 °F 56.5 °F 30.1 in NNE 3.1 mph 7.6 mph 78% 0 in 113 W/m2
07:03 64 °F 56.7 °F 30.1 in NNE 3.8 mph 7.6 mph 77% 0 in 123 W/m2
07:08 64.4 °F 56.7 °F 30.1 in NNE 1.6 mph 7.6 mph 76% 0 in 133 W/m2
07:13 64.8 °F 57 °F 30.1 in NNE 2.2 mph 7.6 mph 76% 0 in 142 W/m2
07:23 65.5 °F 57.4 °F 30.1 in North 2.2 mph 7.6 mph 75% 0 in 166 W/m2
07:28 65.7 °F 57.2 °F 30.1 in North 3.1 mph 9.8 mph 74% 0 in 177 W/m2
07:38 66.2 °F 56.8 °F 30.1 in North 1.6 mph 10.7 mph 72% 0 in 201 W/m2
07:43 66.6 °F 56.8 °F 30.1 in North 3.1 mph 10.7 mph 71% 0 in 212 W/m2
07:48 66.9 °F 57.2 °F 30.1 in North 3.8 mph 9.2 mph 71% 0 in 224 W/m2
07:53 66.9 °F 56.8 °F 30.1 in NNW 3.8 mph 9.2 mph 70% 0 in 235 W/m2
07:58 67.1 °F 57 °F 30.1 in NNW 2.2 mph 9.2 mph 70% 0 in 247 W/m2
08:08 68.2 °F 57.2 °F 30.1 in North 4.5 mph 8.3 mph 68% 0 in 275 W/m2
08:10 68.2 °F 57.2 °F 30.1 in NNW 3.1 mph 9.2 mph 68% 0 in 279 W/m2
08:15 68.9 °F 58.3 °F 30.1 in North 3.8 mph 9.2 mph 69% 0 in 293 W/m2
08:20 68.4 °F 57 °F 30.1 in North 3.8 mph 9.8 mph 67% 0 in 306 W/m2
08:25 69.1 °F 58.1 °F 30.1 in NNW 3.8 mph 9.8 mph 68% 0 in 320 W/m2
08:30 69.6 °F 58.3 °F 30.1 in NNW 3.1 mph 8.3 mph 67% 0 in 335 W/m2
08:40 70.3 °F 57.6 °F 30.1 in North 3.8 mph 9.8 mph 64% 0 in 363 W/m2
08:45 70.3 °F 57.9 °F 30.1 in North 3.8 mph 9.8 mph 65% 0 in 377 W/m2
08:50 70.9 °F 58.1 °F 30.1 in NNW 6.9 mph 9.2 mph 64% 0 in 396 W/m2
08:55 71.2 °F 58.5 °F 30.1 in North 3.1 mph 9.2 mph 64% 0 in 406 W/m2
09:00 71.8 °F 58.5 °F 30.1 in North 6 mph 9.2 mph 63% 0 in 424 W/m2
09:05 72.3 °F 58.6 °F 30.1 in North 3.8 mph 8.3 mph 62% 0 in 440 W/m2
09:10 72.5 °F 58.8 °F 30.1 in North 3.8 mph 8.3 mph 62% 0 in 455 W/m2
09:15 73 °F 59.4 °F 30.1 in North 2.2 mph 7.6 mph 62% 0 in 473 W/m2
09:20 73 °F 58.8 °F 30.1 in Calm   7.6 mph 61% 0 in 489 W/m2
09:25 73.6 °F 59.4 °F 30.1 in Calm   9.2 mph 61% 0 in 507 W/m2
09:30 74.1 °F 58.8 °F 30.1 in North 3.1 mph 9.2 mph 59% 0 in 526 W/m2
09:35 74.5 °F 59.2 °F 30.1 in North 0.7 mph 6.9 mph 59% 0 in 543 W/m2
09:40 75.2 °F 59.4 °F 30.1 in North 1.6 mph 6.9 mph 58% 0 in 567 W/m2
09:45 75 °F 59.4 °F 30.1 in Calm   6.9 mph 58% 0 in 586 W/m2
09:50 75 °F 59.4 °F 30.1 in NNW 3.1 mph 6.9 mph 58% 0 in 605 W/m2
09:55 75.4 °F 58.6 °F 30.1 in North 1.6 mph 6.9 mph 56% 0 in 624 W/m2
10:00 75.4 °F 59.2 °F 30.1 in NNW 0.7 mph 6.9 mph 57% 0 in 645 W/m2
10:05 76.5 °F 60.1 °F 30.1 in NNW 2.2 mph 6 mph 57% 0 in 665 W/m2
10:15 76.8 °F 59.5 °F 30.1 in Calm   6 mph 55% 0 in 697 W/m2
10:25 77.7 °F 57.6 °F 30.1 in NNE 1.6 mph 6 mph 50% 0 in 727 W/m2
10:35 78.1 °F 57.4 °F 30.1 in NE 3.1 mph 6 mph 49% 0 in 744 W/m2
10:40 77.5 °F 56.8 °F 30.1 in Calm   5.4 mph 49% 0 in 753 W/m2
10:45 78.4 °F 58.8 °F 30.1 in NNW 0.7 mph 5.4 mph 51% 0 in 768 W/m2
10:50 78.4 °F 57.7 °F 30.1 in Calm   5.4 mph 49% 0 in 779 W/m2
11:00 78.8 °F 55.8 °F 30.1 in North 5.4 mph 7.6 mph 45% 0 in 794 W/m2
11:05 78.3 °F 54.7 °F 30.1 in Calm   7.6 mph 44% 0 in 798 W/m2
11:10 78.6 °F 54.9 °F 30.1 in Calm   6.9 mph 44% 0 in 814 W/m2
11:20 80.4 °F 55.2 °F 30.1 in NE 3.8 mph 8.3 mph 42% 0 in 829 W/m2
11:25 80.4 °F 55.2 °F 30.1 in Calm   6 mph 42% 0 in 834 W/m2
11:30 81 °F 55.8 °F 30.1 in Calm   7.6 mph 42% 0 in 839 W/m2
11:40 79.3 °F 59.7 °F 30.1 in SSW 5.4 mph 10.7 mph 51% 0 in 840 W/m2
11:45 77.7 °F 61.3 °F 30.1 in South 5.4 mph 10.7 mph 57% 0 in 832 W/m2
11:50 75.9 °F 63.9 °F 30.1 in SSE 7.6 mph 9.8 mph 66% 0 in 785 W/m2
12:00 74.1 °F 61.5 °F 30.1 in SE 3.1 mph 10.7 mph 65% 0 in 824 W/m2
12:20 76.1 °F 59.4 °F 30.1 in SE 3.8 mph 11.4 mph 56% 0 in 835 W/m2
12:25 76.1 °F 58.8 °F 30.1 in SE 2.2 mph 11.4 mph 55% 0 in 780 W/m2
12:30 76.6 °F 58.8 °F 30.1 in SE 3.8 mph 10.7 mph 54% 0 in 835 W/m2
12:35 76.6 °F 59.4 °F 30.1 in SE 3.1 mph 9.2 mph 55% 0 in 838 W/m2
12:40 77.9 °F 59.4 °F 30.1 in SE 1.6 mph 8.3 mph 53% 0 in 842 W/m2
12:45 77.7 °F 57 °F 30.1 in SE 3.1 mph 8.3 mph 49% 0 in 836 W/m2
12:50 77.7 °F 57.6 °F 30.1 in SE 1.6 mph 8.3 mph 50% 0 in 834 W/m2
13:00 77.7 °F 58.3 °F 30 in SE 3.1 mph 9.8 mph 51% 0 in 830 W/m2
13:05 77.2 °F 57.7 °F 30.1 in SSE 3.8 mph 10.7 mph 51% 0 in 823 W/m2
13:10 77.2 °F 57.7 °F 30.1 in SE 4.5 mph 10.7 mph 51% 0 in 817 W/m2
13:15 77 °F 58.1 °F 30 in ESE 3.1 mph 10.7 mph 52% 0 in 815 W/m2
13:20 77.7 °F 59.4 °F 30 in ESE 3.8 mph 10.7 mph 53% 0 in 813 W/m2
13:25 77.5 °F 58.6 °F 30 in SE 3.8 mph 14.5 mph 52% 0 in 809 W/m2
13:30 77.5 °F 59.2 °F 30 in SE 0.7 mph 14.5 mph 53% 0 in 807 W/m2
13:35 78.3 °F 58.6 °F 30 in SE 3.1 mph 12.1 mph 51% 0 in 803 W/m2
13:40 78.4 °F 58.8 °F 30 in ESE 5.4 mph 9.2 mph 51% 0 in 796 W/m2
13:45 78.4 °F 59.9 °F 30 in ESE 3.1 mph 9.2 mph 53% 0 in 792 W/m2
13:50 78.8 °F 59.2 °F 30 in ESE 6 mph 10.7 mph 51% 0 in 788 W/m2
13:55 78.4 °F 59.4 °F 30 in ESE 2.2 mph 10.7 mph 52% 0 in 782 W/m2
14:00 78.6 °F 59.5 °F 30 in SE 3.8 mph 9.8 mph 52% 0 in 775 W/m2
14:10 78.6 °F 59 °F 30 in ESE 2.2 mph 11.4 mph 51% 0 in 763 W/m2
14:15 79.3 °F 59.2 °F 30 in ESE 3.1 mph 9.2 mph 50% 0 in 759 W/m2
14:20 79.3 °F 60.3 °F 30 in SE 0.7 mph 9.2 mph 52% 0 in 751 W/m2
14:24 79.5 °F 60.4 °F 30 in SSE 3.8 mph 9.8 mph 52% 0 in 750 W/m2
14:29 79.3 °F 59.2 °F 30 in SE 4.5 mph 10.7 mph 50% 0 in 738 W/m2
14:34 79.2 °F 60.1 °F 30 in SE 3.1 mph 10.7 mph 52% 0 in 731 W/m2
14:39 79.7 °F 60.1 °F 30 in SE 7.6 mph 10.7 mph 51% 0 in 727 W/m2
14:54 80.6 °F 59.7 °F 30 in SE 3.8 mph 9.8 mph 49% 0 in 705 W/m2
15:04 80.4 °F 60.6 °F 30 in ESE 3.1 mph 9.2 mph 51% 0 in 684 W/m2
15:09 80.8 °F 59.4 °F 30 in Calm   9.2 mph 48% 0 in 678 W/m2
15:14 80.8 °F 59.4 °F 30 in SE 2.2 mph 9.2 mph 48% 0 in 669 W/m2
15:19 80.2 °F 60.1 °F 30 in SSE 2.2 mph 10.7 mph 50% 0 in 652 W/m2
15:25 80.1 °F 59.7 °F 30 in ESE 1.6 mph 10.7 mph 50% 0 in 639 W/m2
15:30 80.6 °F 60.3 °F 30 in ESE 3.1 mph 9.8 mph 50% 0 in 638 W/m2
15:35 80.6 °F 59.7 °F 30 in SE 3.1 mph 10.7 mph 49% 0 in 623 W/m2
15:40 80.8 °F 59.4 °F 30 in SE 2.2 mph 10.7 mph 48% 0 in 617 W/m2
15:45 80.4 °F 60.1 °F 30 in ESE 4.5 mph 9.2 mph 50% 0 in 604 W/m2
15:50 80.4 °F 59.5 °F 30 in ESE 3.8 mph 9.2 mph 49% 0 in 594 W/m2
15:55 80.8 °F 59.4 °F 30 in ESE 3.8 mph 9.2 mph 48% 0 in 586 W/m2
16:00 81.3 °F 59.2 °F 30 in ESE 2.2 mph 9.2 mph 47% 0 in 575 W/m2
16:16 82 °F 57.4 °F 30 in SE 3.1 mph 8.3 mph 43% 0 in 539 W/m2
16:21 82.2 °F 56.8 °F 30 in SE 2.2 mph 8.3 mph 42% 0 in 525 W/m2
16:26 81.7 °F 57 °F 30 in ESE 2.2 mph 9.2 mph 43% 0 in 514 W/m2
16:31 81.9 °F 57.2 °F 30 in Calm   9.2 mph 43% 0 in 501 W/m2
16:36 82.2 °F 56.1 °F 30 in ESE 0.7 mph 6.9 mph 41% 0 in 490 W/m2
17:10 82.9 °F 56.1 °F 30 in SSE 2.2 mph 8.3 mph 40% 0 in 404 W/m2
17:15 82.9 °F 57.6 °F 30 in SE 2.2 mph 8.3 mph 42% 0 in 394 W/m2
17:20 82.6 °F 55.9 °F 30 in SE 2.2 mph 9.8 mph 40% 0 in 375 W/m2
17:25 82.6 °F 57.2 °F 30 in SE 0.7 mph 9.8 mph 42% 0 in 365 W/m2
17:40 81.3 °F 54.7 °F 30 in ESE 1.6 mph 7.6 mph 40% 0 in 324 W/m2
17:45 81.5 °F 54.9 °F 30 in ESE 4.5 mph 7.6 mph 40% 0 in 310 W/m2
17:50 81.3 °F 55.4 °F 30 in ESE 2.2 mph 7.6 mph 41% 0 in 300 W/m2
18:05 83.3 °F 55 °F 30 in ESE 1.6 mph 4.5 mph 38% 0 in 99 W/m2
18:10 80.8 °F 52.9 °F 30 in SE 0.7 mph 4.5 mph 38% 0 in 102 W/m2
18:20 79.9 °F 56.1 °F 30 in SE 0.7 mph 3.8 mph 44% 0 in 160 W/m2
18:30 81.9 °F 57.2 °F 30 in Calm   3.8 mph 43% 0 in 127 W/m2
18:40 79 °F 55.9 °F 30 in SE 0.7 mph 4.5 mph 45% 0 in 73 W/m2
18:50 77 °F 58.6 °F 30 in Calm   6 mph 53% 0 in 82 W/m2
18:55 76.3 °F 59 °F 30 in SSE 1.6 mph 6 mph 55% 0 in 61 W/m2
19:00 75.6 °F 59.4 °F 30 in Calm   6 mph 57% 0 in 58 W/m2
19:10 74.8 °F 61.3 °F 30 in SSE 0.7 mph 5.4 mph 63% 0 in 54 W/m2
19:15 73.8 °F 61.3 °F 30 in Calm   4.5 mph 65% 0 in 53 W/m2
19:20 73.4 °F 61 °F 30 in Calm   4.5 mph 65% 0 in 46 W/m2
19:25 73.2 °F 60.3 °F 30 in Calm   4.5 mph 64% 0 in 53 W/m2
19:30 73.4 °F 61 °F 30 in Calm   3.1 mph 65% 0 in 36 W/m2
19:35 73.2 °F 60.3 °F 30 in Calm   3.1 mph 64% 0 in 28 W/m2
19:40 73 °F 60.6 °F 30 in Calm   1.6 mph 65% 0 in 27 W/m2
19:50 73.2 °F 61.5 °F 30 in South 1.6 mph 3.1 mph 67% 0 in 21 W/m2
19:55 71.6 °F 61 °F 30 in South 2.2 mph 5.4 mph 69% 0 in 13 W/m2
20:00 70.5 °F 61.2 °F 30 in Calm   5.4 mph 72% 0 in 10 W/m2
20:05 69.8 °F 60.8 °F 30 in South 0.7 mph 5.4 mph 73% 0 in 7 W/m2
20:10 69.3 °F 61 °F 30 in Calm   3.8 mph 75% 0 in 3 W/m2
20:15 68.9 °F 61 °F 30 in South 0.7 mph 4.5 mph 76% 0 in 0 W/m2
20:20 68.7 °F 61 °F 30 in Calm   4.5 mph 76% 0 in 0 W/m2
20:25 68.7 °F 60.4 °F 30 in Calm   3.8 mph 75% 0 in 0 W/m2
20:30 68.7 °F 60.4 °F 30 in Calm   2.2 mph 75% 0 in 0 W/m2
20:45 68.7 °F 59.7 °F 30 in Calm   1.6 mph 73% 0 in 0 W/m2
20:50 68.5 °F 59.9 °F 30 in Calm     74% 0 in 0 W/m2
21:00 68.2 °F 60.1 °F 30 in Calm   0.7 mph 75% 0 in 0 W/m2
21:10 68.4 °F 60.4 °F 30 in Calm   0.7 mph 76% 0 in 0 W/m2
21:15 68.2 °F 60.4 °F 30 in Calm   0.7 mph 76% 0 in 0 W/m2
21:20 68.2 °F 60.4 °F 30.1 in WSW 2.2 mph 4.5 mph 76% 0 in 0 W/m2
21:25 67.5 °F 60.4 °F 30.1 in WSW 0.7 mph 6 mph 78% 0 in 0 W/m2
21:30 67.1 °F 60.4 °F 30.1 in SW 1.6 mph 6 mph 79% 0 in 0 W/m2
21:35 66.9 °F 61 °F 30.1 in SW 0.7 mph 3.8 mph 81% 0 in 0 W/m2
21:40 66.9 °F 61.3 °F 30.1 in Calm   3.1 mph 82% 0 in 0 W/m2
21:41 66.9 °F 61.3 °F 30.1 in SW 0.7 mph 3.1 mph 82% 0 in 0 W/m2
21:46 66.9 °F 62.1 °F 30.1 in Calm   3.1 mph 84% 0 in 0 W/m2
21:56 66.4 °F 61.3 °F 30.1 in Calm   0.7 mph 84% 0 in 0 W/m2
22:01 66.2 °F 61.5 °F 30.1 in Calm   1.6 mph 85% 0 in 0 W/m2
22:06 66.4 °F 62.1 °F 30.1 in Calm   1.6 mph 86% 0 in 0 W/m2
22:11 66.2 °F 62.2 °F 30.1 in Calm   1.6 mph 87% 0 in 0 W/m2
22:16 66 °F 62.1 °F 30.1 in Calm     87% 0 in 0 W/m2
22:21 65.8 °F 62.2 °F 30.1 in Calm     88% 0 in 0 W/m2
22:26 65.7 °F 62.1 °F 30.1 in Calm     88% 0 in 0 W/m2
22:31 65.3 °F 61.7 °F 30.1 in Calm     88% 0 in 0 W/m2
22:36 64.9 °F 61.3 °F 30.1 in Calm     88% 0 in 0 W/m2
22:41 64.6 °F 61 °F 30.1 in Calm     88% 0 in 0 W/m2
22:46 64.4 °F 60.8 °F 30.1 in Calm     88% 0 in 0 W/m2
22:51 64 °F 60.1 °F 30.1 in Calm     87% 0 in 0 W/m2
22:56 63.7 °F 59.7 °F 30.1 in Calm     87% 0 in 0 W/m2
23:01 63.3 °F 59.4 °F 30.1 in Calm     87% 0 in 0 W/m2
23:06 63.1 °F 59.5 °F 30.1 in Calm     88% 0 in 0 W/m2
23:11 63.3 °F 60.1 °F 30.1 in Calm     89% 0 in 0 W/m2
23:16 63.3 °F 60.4 °F 30.1 in Calm     90% 0 in 0 W/m2
23:21 63.3 °F 60.4 °F 30.1 in Calm     90% 0 in 0 W/m2
23:26 63.3 °F 60.6 °F 30.1 in Calm     91% 0 in 0 W/m2
23:31 63.1 °F 60.4 °F 30.1 in Calm     91% 0 in 0 W/m2
23:36 62.8 °F 59.7 °F 30.1 in Calm     90% 0 in 0 W/m2
23:41 62.6 °F 60.1 °F 30.1 in Calm     91% 0 in 0 W/m2
23:46 62.6 °F 60.1 °F 30.1 in Calm     91% 0 in 0 W/m2
23:51 62.2 °F 59.9 °F 30.1 in Calm     92% 0 in 0 W/m2
23:56 62.2 °F 59.9 °F 30.1 in Calm     92% 0 in 0 W/m2
Northern Hawkes Bay. New Zealand Historic Data
Compliments of Weather Underground - 2 mb